To NAV CANADA Home Page Login to a new session Search on AWWS site Feedback and Comments Disclaimer Vers la page française équivalente Tips FAQ What's new on the site To the Forecasts and Observations / NOTAM section To "File a Flight Plan" website Publications and other links Update of the User's profile FIC Telephone Numbers My Weather Data Folder Route Weather Data Regional Weather Data Local Weather Data To the Forecasts and Observations / NOTAM section
Request Generated 04/29/2016 at 10:26:09 UTC . Weather information available at that time is displayed.

METAR/TAF

FREDERICTON/FREDERICTON INTL/NB    (show WxCam)

METAR CYFC 291000Z AUTO 21005KT 9SM CLR M06/M10 A3018 RMK SLP223=
METAR CYFC 290900Z AUTO 20005KT 9SM CLR M06/M11 A3017 RMK SLP218=
METAR CYFC 290800Z AUTO 26003KT 9SM CLR M06/M11 A3015 RMK SLP214=

TAF CYFC 290538Z 2906/2918 25005KT P6SM SKC
BECMG 2911/2913 26010KT
RMK FCST BASED ON AUTO OBS. NXT FCST BY 291200Z=
Your time UTC time
Weather data provided by Environment Canada and NAV CANADA